sensor_id;sensor_type;location;lat;lon;timestamp;pressure;altitude;pressure_sealevel;temperature;humidity
20037;BME280;10179;42.640;23.312;2023-10-31T00:01:59;93897.44;;;16.72;45.94
20037;BME280;10179;42.640;23.312;2023-10-31T00:04:24;93881.19;;;16.58;46.25
20037;BME280;10179;42.640;23.312;2023-10-31T00:06:50;93921.91;;;16.79;46.07
20037;BME280;10179;42.640;23.312;2023-10-31T00:09:16;93900.06;;;16.67;46.14
20037;BME280;10179;42.640;23.312;2023-10-31T00:11:41;93918.91;;;16.70;46.53
20037;BME280;10179;42.640;23.312;2023-10-31T00:14:08;93873.94;;;16.43;46.95
20037;BME280;10179;42.640;23.312;2023-10-31T00:16:33;93809.31;;;16.12;46.71
20037;BME280;10179;42.640;23.312;2023-10-31T00:18:59;93885.69;;;16.58;46.62
20037;BME280;10179;42.640;23.312;2023-10-31T00:21:24;93876.94;;;16.57;46.92
20037;BME280;10179;42.640;23.312;2023-10-31T00:23:50;93798.66;;;16.02;46.56
20037;BME280;10179;42.640;23.312;2023-10-31T00:26:15;93871.22;;;16.38;46.74
20037;BME280;10179;42.640;23.312;2023-10-31T00:28:40;93905.81;;;16.54;46.66
20037;BME280;10179;42.640;23.312;2023-10-31T00:31:07;93893.81;;;16.46;46.95
20037;BME280;10179;42.640;23.312;2023-10-31T00:33:34;93898.31;;;16.40;47.29
20037;BME280;10179;42.640;23.312;2023-10-31T00:36:00;93877.22;;;16.23;47.45
20037;BME280;10179;42.640;23.312;2023-10-31T00:38:26;93751.72;;;15.33;47.39
20037;BME280;10179;42.640;23.312;2023-10-31T00:40:51;93888.59;;;16.19;47.72
20037;BME280;10179;42.640;23.312;2023-10-31T00:43:16;93904.16;;;16.10;47.71
20037;BME280;10179;42.640;23.312;2023-10-31T00:45:42;93885.38;;;16.17;47.62
20037;BME280;10179;42.640;23.312;2023-10-31T00:48:07;93801.81;;;15.67;47.89
20037;BME280;10179;42.640;23.312;2023-10-31T00:50:32;93889.09;;;16.16;47.80
20037;BME280;10179;42.640;23.312;2023-10-31T00:52:58;93803.56;;;15.61;48.22
20037;BME280;10179;42.640;23.312;2023-10-31T00:55:23;93891.97;;;16.14;48.26
20037;BME280;10179;42.640;23.312;2023-10-31T00:57:49;93882.22;;;16.15;48.34
20037;BME280;10179;42.640;23.312;2023-10-31T01:00:14;93891.97;;;16.14;48.48
20037;BME280;10179;42.640;23.312;2023-10-31T01:02:40;93852.41;;;16.03;48.53
20037;BME280;10179;42.640;23.312;2023-10-31T01:05:06;93871.63;;;16.15;48.71
20037;BME280;10179;42.640;23.312;2023-10-31T01:07:31;93866.84;;;16.17;48.61
20037;BME280;10179;42.640;23.312;2023-10-31T01:09:57;93804.28;;;15.79;48.44
20037;BME280;10179;42.640;23.312;2023-10-31T01:12:22;93765.13;;;15.54;48.68
20037;BME280;10179;42.640;23.312;2023-10-31T01:14:48;93814.72;;;15.90;48.69
20037;BME280;10179;42.640;23.312;2023-10-31T01:17:13;93852.06;;;16.26;48.60
20037;BME280;10179;42.640;23.312;2023-10-31T01:19:38;93855.25;;;16.28;48.75
20037;BME280;10179;42.640;23.312;2023-10-31T01:22:04;93860.06;;;16.31;48.37
20037;BME280;10179;42.640;23.312;2023-10-31T01:24:30;93844.88;;;16.21;48.49
20037;BME280;10179;42.640;23.312;2023-10-31T01:26:55;93846.78;;;16.26;48.70
20037;BME280;10179;42.640;23.312;2023-10-31T01:29:20;93803.72;;;16.09;48.35
20037;BME280;10179;42.640;23.312;2023-10-31T01:31:46;93849.50;;;16.36;48.26
20037;BME280;10179;42.640;23.312;2023-10-31T01:34:11;93838.78;;;16.21;48.11
20037;BME280;10179;42.640;23.312;2023-10-31T01:36:37;93891.28;;;16.24;48.13
20037;BME280;10179;42.640;23.312;2023-10-31T01:39:02;93840.91;;;16.19;48.08
20037;BME280;10179;42.640;23.312;2023-10-31T01:41:28;93778.53;;;15.69;48.33
20037;BME280;10179;42.640;23.312;2023-10-31T01:43:53;93837.03;;;15.99;48.45
20037;BME280;10179;42.640;23.312;2023-10-31T01:46:18;93870.50;;;16.11;48.67
20037;BME280;10179;42.640;23.312;2023-10-31T01:48:44;93842.31;;;15.99;48.64
20037;BME280;10179;42.640;23.312;2023-10-31T01:51:09;93810.31;;;15.69;48.66
20037;BME280;10179;42.640;23.312;2023-10-31T01:53:35;93857.59;;;15.87;48.93
20037;BME280;10179;42.640;23.312;2023-10-31T01:56:03;93811.19;;;15.52;49.15
20037;BME280;10179;42.640;23.312;2023-10-31T01:58:31;93847.22;;;15.81;49.25
20037;BME280;10179;42.640;23.312;2023-10-31T02:00:59;93845.28;;;15.71;49.39
20037;BME280;10179;42.640;23.312;2023-10-31T02:03:28;93753.06;;;15.09;49.57
20037;BME280;10179;42.640;23.312;2023-10-31T02:05:54;93841.22;;;15.63;49.79
20037;BME280;10179;42.640;23.312;2023-10-31T02:08:20;93732.56;;;14.94;49.87
20037;BME280;10179;42.640;23.312;2023-10-31T02:10:45;93839.84;;;15.61;50.06
20037;BME280;10179;42.640;23.312;2023-10-31T02:13:15;93831.91;;;15.61;nan
20037;BME280;10179;42.640;23.312;2023-10-31T02:15:41;93795.97;;;15.38;50.13
20037;BME280;10179;42.640;23.312;2023-10-31T02:18:07;93813.25;;;15.45;50.17
20037;BME280;10179;42.640;23.312;2023-10-31T02:20:33;93692.66;;;14.68;50.24
20037;BME280;10179;42.640;23.312;2023-10-31T02:22:59;93820.72;;;15.54;50.41
20037;BME280;10179;42.640;23.312;2023-10-31T02:25:25;93818.63;;;15.56;50.54
20037;BME280;10179;42.640;23.312;2023-10-31T02:27:51;93817.59;;;15.57;50.60
20037;BME280;10179;42.640;23.312;2023-10-31T02:30:16;93782.75;;;15.38;51.06
20037;BME280;10179;42.640;23.312;2023-10-31T02:32:42;93816.91;;;15.66;51.14
20037;BME280;10179;42.640;23.312;2023-10-31T02:35:07;93756.97;;;15.28;51.03
20037;BME280;10179;42.640;23.312;2023-10-31T02:37:33;93713.38;;;15.03;51.15
20037;BME280;10179;42.640;23.312;2023-10-31T02:39:59;93819.22;;;15.63;50.68
20037;BME280;10179;42.640;23.312;2023-10-31T02:42:26;93812.69;;;15.70;50.79
20037;BME280;10179;42.640;23.312;2023-10-31T02:44:52;93813.19;;;15.67;50.97
20037;BME280;10179;42.640;23.312;2023-10-31T02:47:17;93788.94;;;15.48;51.66
20037;BME280;10179;42.640;23.312;2023-10-31T02:49:43;93814.59;;;15.75;51.49
20037;BME280;10179;42.640;23.312;2023-10-31T02:52:08;93810.91;;;15.76;51.50
20037;BME280;10179;42.640;23.312;2023-10-31T02:54:34;93817.28;;;15.80;51.59
20037;BME280;10179;42.640;23.312;2023-10-31T02:56:59;93807.78;;;15.84;51.65
20037;BME280;10179;42.640;23.312;2023-10-31T02:59:25;93781.69;;;15.66;51.40
20037;BME280;10179;42.640;23.312;2023-10-31T03:01:50;93810.47;;;15.89;51.74
20037;BME280;10179;42.640;23.312;2023-10-31T03:04:16;93722.59;;;15.33;51.50
20037;BME280;10179;42.640;23.312;2023-10-31T03:06:42;93737.78;;;15.43;51.72
20037;BME280;10179;42.640;23.312;2023-10-31T03:09:07;93787.56;;;15.73;51.61
20037;BME280;10179;42.640;23.312;2023-10-31T03:11:32;93796.13;;;15.85;51.81
20037;BME280;10179;42.640;23.312;2023-10-31T03:13:58;93823.78;;;15.99;51.60
20037;BME280;10179;42.640;23.312;2023-10-31T03:16:24;93826.13;;;15.96;51.62
20037;BME280;10179;42.640;23.312;2023-10-31T03:18:50;93810.47;;;15.89;51.30
20037;BME280;10179;42.640;23.312;2023-10-31T03:21:16;93810.16;;;15.86;51.70
20037;BME280;10179;42.640;23.312;2023-10-31T03:23:46;93807.22;;;15.82;51.84
20037;BME280;10179;42.640;23.312;2023-10-31T03:26:11;93806.41;;;15.77;51.62
20037;BME280;10179;42.640;23.312;2023-10-31T03:28:37;93789.31;;;15.62;51.76
20037;BME280;10179;42.640;23.312;2023-10-31T03:31:02;93476.88;;;13.49;51.88
20037;BME280;10179;42.640;23.312;2023-10-31T03:33:28;93787.56;;;15.73;52.00
20037;BME280;10179;42.640;23.312;2023-10-31T03:35:53;93757.41;;;15.47;52.38
20037;BME280;10179;42.640;23.312;2023-10-31T03:38:19;93794.94;;;15.66;51.89
20037;BME280;10179;42.640;23.312;2023-10-31T03:40:44;93751.28;;;15.41;52.30
20037;BME280;10179;42.640;23.312;2023-10-31T03:43:09;93784.34;;;15.66;52.40
20037;BME280;10179;42.640;23.312;2023-10-31T03:45:35;93682.69;;;15.02;52.28
20037;BME280;10179;42.640;23.312;2023-10-31T03:48:00;93776.06;;;15.62;52.15
20037;BME280;10179;42.640;23.312;2023-10-31T03:50:25;93770.44;;;15.54;52.48
20037;BME280;10179;42.640;23.312;2023-10-31T03:52:51;93775.19;;;15.51;52.44
20037;BME280;10179;42.640;23.312;2023-10-31T03:55:17;93781.06;;;15.59;52.62
20037;BME280;10179;42.640;23.312;2023-10-31T03:57:43;93770.94;;;15.50;52.59
20037;BME280;10179;42.640;23.312;2023-10-31T04:00:09;93783.13;;;15.51;52.34
20037;BME280;10179;42.640;23.312;2023-10-31T04:02:35;93751.59;;;15.18;52.16
20037;BME280;10179;42.640;23.312;2023-10-31T04:05:01;93791.38;;;15.28;51.94
20037;BME280;10179;42.640;23.312;2023-10-31T04:07:27;93783.84;;;15.15;52.10
20037;BME280;10179;42.640;23.312;2023-10-31T04:09:52;93756.25;;;14.84;52.20
20037;BME280;10179;42.640;23.312;2023-10-31T04:12:18;93794.31;;;15.04;52.33
20037;BME280;10179;42.640;23.312;2023-10-31T04:14:43;93787.91;;;15.00;52.56
20037;BME280;10179;42.640;23.312;2023-10-31T04:17:08;93775.06;;;14.87;52.52
20037;BME280;10179;42.640;23.312;2023-10-31T04:19:36;93775.53;;;14.79;52.55
20037;BME280;10179;42.640;23.312;2023-10-31T04:22:01;93763.97;;;14.85;52.42
20037;BME280;10179;42.640;23.312;2023-10-31T04:24:27;93786.72;;;14.86;52.40
20037;BME280;10179;42.640;23.312;2023-10-31T04:26:52;93718.25;;;14.46;52.30
20037;BME280;10179;42.640;23.312;2023-10-31T04:29:18;93778.91;;;14.74;52.32
20037;BME280;10179;42.640;23.312;2023-10-31T04:31:43;93766.97;;;14.72;52.53
20037;BME280;10179;42.640;23.312;2023-10-31T04:34:09;93743.56;;;14.59;52.47
20037;BME280;10179;42.640;23.312;2023-10-31T04:36:34;93651.38;;;13.96;52.43
20037;BME280;10179;42.640;23.312;2023-10-31T04:38:59;93765.31;;;14.66;52.50
20037;BME280;10179;42.640;23.312;2023-10-31T04:41:25;93769.00;;;14.65;52.37
20037;BME280;10179;42.640;23.312;2023-10-31T04:43:50;93747.19;;;14.52;52.44
20037;BME280;10179;42.640;23.312;2023-10-31T04:46:16;93774.00;;;14.61;52.52
20037;BME280;10179;42.640;23.312;2023-10-31T04:48:42;93764.88;;;14.52;52.39
20037;BME280;10179;42.640;23.312;2023-10-31T04:51:07;93777.88;;;14.53;52.63
20037;BME280;10179;42.640;23.312;2023-10-31T04:53:32;93706.41;;;14.04;52.64
20037;BME280;10179;42.640;23.312;2023-10-31T04:55:59;93725.69;;;14.05;52.65
20037;BME280;10179;42.640;23.312;2023-10-31T04:58:25;93749.53;;;14.10;53.00
20037;BME280;10179;42.640;23.312;2023-10-31T05:00:50;93767.84;;;14.17;53.12
20037;BME280;10179;42.640;23.312;2023-10-31T05:03:15;93690.91;;;13.52;53.27
20037;BME280;10179;42.640;23.312;2023-10-31T05:05:41;93674.19;;;13.47;53.33
20037;BME280;10179;42.640;23.312;2023-10-31T05:08:06;93755.81;;;14.04;53.55
20037;BME280;10179;42.640;23.312;2023-10-31T05:10:32;93785.28;;;14.18;53.67
20037;BME280;10179;42.640;23.312;2023-10-31T05:12:57;93801.75;;;14.25;53.56
20037;BME280;10179;42.640;23.312;2023-10-31T05:15:23;93541.84;;;12.60;53.62
20037;BME280;10179;42.640;23.312;2023-10-31T05:17:48;93719.81;;;13.81;53.93
20037;BME280;10179;42.640;23.312;2023-10-31T05:20:14;93782.41;;;14.19;53.92
20037;BME280;10179;42.640;23.312;2023-10-31T05:22:40;93795.81;;;14.35;54.57
20037;BME280;10179;42.640;23.312;2023-10-31T05:25:06;93808.06;;;14.41;54.80
20037;BME280;10179;42.640;23.312;2023-10-31T05:27:32;93799.97;;;14.47;54.50
20037;BME280;10179;42.640;23.312;2023-10-31T05:29:57;93793.16;;;14.51;54.66
20037;BME280;10179;42.640;23.312;2023-10-31T05:32:22;93767.69;;;14.45;55.05
20037;BME280;10179;42.640;23.312;2023-10-31T05:34:48;93733.19;;;14.35;55.16
20037;BME280;10179;42.640;23.312;2023-10-31T05:37:13;93720.22;;;14.50;54.98
20037;BME280;10179;42.640;23.312;2023-10-31T05:39:39;93781.25;;;15.20;54.66
20037;BME280;10179;42.640;23.312;2023-10-31T05:42:04;93784.13;;;15.45;53.84
20037;BME280;10179;42.640;23.312;2023-10-31T05:44:29;93774.53;;;15.66;53.66
20037;BME280;10179;42.640;23.312;2023-10-31T05:46:55;93797.88;;;16.07;51.79
20037;BME280;10179;42.640;23.312;2023-10-31T05:49:20;93792.97;;;16.26;51.68
20037;BME280;10179;42.640;23.312;2023-10-31T05:51:52;93778.53;;;16.54;51.48
20037;BME280;10179;42.640;23.312;2023-10-31T05:54:17;93794.31;;;16.81;50.94
20037;BME280;10179;42.640;23.312;2023-10-31T05:56:43;93789.09;;;17.01;49.90
20037;BME280;10179;42.640;23.312;2023-10-31T05:59:10;93805.91;;;17.42;48.92
20037;BME280;10179;42.640;23.312;2023-10-31T06:01:36;93783.09;;;17.47;48.50
20037;BME280;10179;42.640;23.312;2023-10-31T06:04:01;93693.84;;;17.10;46.67
20037;BME280;10179;42.640;23.312;2023-10-31T06:06:26;93801.19;;;17.96;45.46
20037;BME280;10179;42.640;23.312;2023-10-31T06:08:52;93716.19;;;17.45;44.93
20037;BME280;10179;42.640;23.312;2023-10-31T06:11:17;93825.09;;;18.36;44.82
20037;BME280;10179;42.640;23.312;2023-10-31T06:13:43;93821.84;;;18.65;44.79
20037;BME280;10179;42.640;23.312;2023-10-31T06:16:08;93839.88;;;18.94;43.49
20037;BME280;10179;42.640;23.312;2023-10-31T06:18:33;93830.28;;;18.98;42.70
20037;BME280;10179;42.640;23.312;2023-10-31T06:21:00;93831.94;;;18.89;42.59
20037;BME280;10179;42.640;23.312;2023-10-31T06:23:25;93830.56;;;18.91;42.49
20037;BME280;10179;42.640;23.312;2023-10-31T06:25:50;93707.63;;;18.19;42.29
20037;BME280;10179;42.640;23.312;2023-10-31T06:28:16;93825.50;;;19.00;42.68
20037;BME280;10179;42.640;23.312;2023-10-31T06:30:41;93845.13;;;19.14;42.06
20037;BME280;10179;42.640;23.312;2023-10-31T06:33:07;93838.75;;;19.10;41.54
20037;BME280;10179;42.640;23.312;2023-10-31T06:35:36;93841.38;;;19.15;42.06
20037;BME280;10179;42.640;23.312;2023-10-31T06:38:01;93813.44;;;19.18;41.99
20037;BME280;10179;42.640;23.312;2023-10-31T06:40:27;93583.31;;;17.75;42.07
20037;BME280;10179;42.640;23.312;2023-10-31T06:42:52;93826.31;;;19.50;42.11
20037;BME280;10179;42.640;23.312;2023-10-31T06:45:18;93830.38;;;19.87;41.78
20037;BME280;10179;42.640;23.312;2023-10-31T06:47:43;93835.69;;;20.21;41.26
20037;BME280;10179;42.640;23.312;2023-10-31T06:50:09;93825.25;;;20.59;40.59
20037;BME280;10179;42.640;23.312;2023-10-31T06:52:34;93804.47;;;20.80;39.69
20037;BME280;10179;42.640;23.312;2023-10-31T06:55:00;93812.25;;;21.19;39.18
20037;BME280;10179;42.640;23.312;2023-10-31T06:57:25;93829.75;;;21.54;38.16
20037;BME280;10179;42.640;23.312;2023-10-31T06:59:51;93824.25;;;21.64;38.00
20037;BME280;10179;42.640;23.312;2023-10-31T07:02:17;93792.38;;;21.68;38.09
20037;BME280;10179;42.640;23.312;2023-10-31T07:04:43;93817.00;;;22.03;37.19
20037;BME280;10179;42.640;23.312;2023-10-31T07:07:08;93822.50;;;22.11;36.83
20037;BME280;10179;42.640;23.312;2023-10-31T07:09:33;93546.91;;;20.58;36.59
20037;BME280;10179;42.640;23.312;2023-10-31T07:11:59;93821.63;;;22.49;36.40
20037;BME280;10179;42.640;23.312;2023-10-31T07:14:24;93819.25;;;22.47;35.96
20037;BME280;10179;42.640;23.312;2023-10-31T07:16:49;93808.34;;;22.57;36.08
20037;BME280;10179;42.640;23.312;2023-10-31T07:19:15;93685.31;;;21.92;35.95
20037;BME280;10179;42.640;23.312;2023-10-31T07:21:40;93824.19;;;23.00;35.68
20037;BME280;10179;42.640;23.312;2023-10-31T07:24:06;93824.28;;;23.09;35.23
20037;BME280;10179;42.640;23.312;2023-10-31T07:26:34;93816.44;;;23.13;34.69
20037;BME280;10179;42.640;23.312;2023-10-31T07:29:00;93808.78;;;23.06;35.22
20037;BME280;10179;42.640;23.312;2023-10-31T07:31:25;93742.88;;;22.63;34.84
20037;BME280;10179;42.640;23.312;2023-10-31T07:33:51;93817.31;;;23.22;34.79
20037;BME280;10179;42.640;23.312;2023-10-31T07:36:16;93811.75;;;23.32;34.68
20037;BME280;10179;42.640;23.312;2023-10-31T07:38:41;93763.16;;;22.97;34.67
20037;BME280;10179;42.640;23.312;2023-10-31T07:41:07;93782.41;;;23.13;34.83
20037;BME280;10179;42.640;23.312;2023-10-31T07:43:32;93782.94;;;23.38;34.86
20037;BME280;10179;42.640;23.312;2023-10-31T07:45:58;93801.34;;;23.67;34.21
20037;BME280;10179;42.640;23.312;2023-10-31T07:48:23;93780.59;;;23.72;34.44
20037;BME280;10179;42.640;23.312;2023-10-31T07:50:48;93726.97;;;23.58;34.22
20037;BME280;10179;42.640;23.312;2023-10-31T07:53:14;93790.22;;;24.18;34.02
20037;BME280;10179;42.640;23.312;2023-10-31T07:55:39;93775.31;;;24.26;33.81
20037;BME280;10179;42.640;23.312;2023-10-31T07:58:05;93414.84;;;22.07;33.56
20037;BME280;10179;42.640;23.312;2023-10-31T08:00:30;93774.00;;;24.46;33.19
20037;BME280;10179;42.640;23.312;2023-10-31T08:02:56;93780.63;;;24.40;33.96
20037;BME280;10179;42.640;23.312;2023-10-31T08:05:21;93776.13;;;24.58;33.29
20037;BME280;10179;42.640;23.312;2023-10-31T08:07:47;93780.75;;;24.74;32.99
20037;BME280;10179;42.640;23.312;2023-10-31T08:10:13;93634.19;;;24.11;33.00
20037;BME280;10179;42.640;23.312;2023-10-31T08:12:38;93777.31;;;25.14;32.51
20037;BME280;10179;42.640;23.312;2023-10-31T08:15:04;93768.91;;;25.15;32.43
20037;BME280;10179;42.640;23.312;2023-10-31T08:17:29;93766.44;;;25.28;32.32
20037;BME280;10179;42.640;23.312;2023-10-31T08:19:55;93764.38;;;25.33;32.70
20037;BME280;10179;42.640;23.312;2023-10-31T08:22:20;93756.63;;;25.40;32.24
20037;BME280;10179;42.640;23.312;2023-10-31T08:24:46;93679.19;;;24.85;32.38
20037;BME280;10179;42.640;23.312;2023-10-31T08:27:11;93752.97;;;25.36;32.59
20037;BME280;10179;42.640;23.312;2023-10-31T08:29:37;93749.34;;;25.41;32.34
20037;BME280;10179;42.640;23.312;2023-10-31T08:32:03;93707.56;;;25.17;32.31
20037;BME280;10179;42.640;23.312;2023-10-31T08:34:29;93706.63;;;25.13;31.99
20037;BME280;10179;42.640;23.312;2023-10-31T08:36:55;93729.09;;;25.26;31.98
20037;BME280;10179;42.640;23.312;2023-10-31T08:39:21;93733.97;;;25.15;32.48
20037;BME280;10179;42.640;23.312;2023-10-31T08:41:57;93723.19;;;25.07;32.46
20037;BME280;10179;42.640;23.312;2023-10-31T08:44:23;93723.88;;;25.21;32.24
20037;BME280;10179;42.640;23.312;2023-10-31T08:46:49;93692.47;;;24.99;31.84
20037;BME280;10179;42.640;23.312;2023-10-31T08:49:15;93728.91;;;25.22;31.78
20037;BME280;10179;42.640;23.312;2023-10-31T08:51:41;93696.31;;;25.07;31.83
20037;BME280;10179;42.640;23.312;2023-10-31T08:54:06;93710.09;;;25.22;31.44
20037;BME280;10179;42.640;23.312;2023-10-31T08:56:32;93642.97;;;24.91;31.57
20037;BME280;10179;42.640;23.312;2023-10-31T08:58:57;93705.53;;;25.40;31.42
20037;BME280;10179;42.640;23.312;2023-10-31T09:01:23;93690.16;;;25.41;31.45
20037;BME280;10179;42.640;23.312;2023-10-31T09:03:48;93654.28;;;25.11;31.21
20037;BME280;10179;42.640;23.312;2023-10-31T09:06:14;93688.28;;;25.33;31.37
20037;BME280;10179;42.640;23.312;2023-10-31T09:08:39;93635.09;;;24.95;31.07
20037;BME280;10179;42.640;23.312;2023-10-31T09:11:05;93442.25;;;23.56;31.52
20037;BME280;10179;42.640;23.312;2023-10-31T09:13:31;93665.44;;;24.95;31.15
20037;BME280;10179;42.640;23.312;2023-10-31T09:15:58;93675.56;;;24.90;31.46
20037;BME280;10179;42.640;23.312;2023-10-31T09:18:24;93566.81;;;24.13;31.33
20037;BME280;10179;42.640;23.312;2023-10-31T09:20:50;93669.84;;;24.83;31.51
20037;BME280;10179;42.640;23.312;2023-10-31T09:23:15;93663.84;;;24.94;31.01
20037;BME280;10179;42.640;23.312;2023-10-31T09:25:42;93661.81;;;25.09;30.91
20037;BME280;10179;42.640;23.312;2023-10-31T09:28:08;93656.47;;;25.26;30.72
20037;BME280;10179;42.640;23.312;2023-10-31T09:30:33;93603.31;;;24.97;30.30
20037;BME280;10179;42.640;23.312;2023-10-31T09:32:58;93603.94;;;25.03;30.45
20037;BME280;10179;42.640;23.312;2023-10-31T09:35:24;93637.34;;;25.19;30.27
20037;BME280;10179;42.640;23.312;2023-10-31T09:37:50;93564.25;;;24.73;30.79
20037;BME280;10179;42.640;23.312;2023-10-31T09:40:16;93607.44;;;24.86;30.36
20037;BME280;10179;42.640;23.312;2023-10-31T09:42:41;93615.78;;;24.75;30.64
20037;BME280;10179;42.640;23.312;2023-10-31T09:45:08;93634.09;;;24.65;30.91
20037;BME280;10179;42.640;23.312;2023-10-31T09:47:33;93615.72;;;24.41;31.38
20037;BME280;10179;42.640;23.312;2023-10-31T09:49:59;93562.31;;;23.91;31.60
20037;BME280;10179;42.640;23.312;2023-10-31T09:52:25;93529.81;;;23.61;31.84
20037;BME280;10179;42.640;23.312;2023-10-31T09:54:51;93602.47;;;24.04;31.65
20037;BME280;10179;42.640;23.312;2023-10-31T09:57:17;93603.69;;;23.98;31.60
20037;BME280;10179;42.640;23.312;2023-10-31T09:59:43;93577.41;;;23.78;31.41
20037;BME280;10179;42.640;23.312;2023-10-31T10:02:08;93568.94;;;23.93;30.67
20037;BME280;10179;42.640;23.312;2023-10-31T10:04:36;93573.22;;;23.94;30.43
20037;BME280;10179;42.640;23.312;2023-10-31T10:07:03;93584.50;;;24.14;30.24
20037;BME280;10179;42.640;23.312;2023-10-31T10:09:29;93575.03;;;24.25;30.51
20037;BME280;10179;42.640;23.312;2023-10-31T10:11:56;93581.69;;;24.19;30.70
20037;BME280;10179;42.640;23.312;2023-10-31T10:14:25;93570.88;;;24.01;30.79
20037;BME280;10179;42.640;23.312;2023-10-31T10:16:52;93559.16;;;23.89;30.72
20037;BME280;10179;42.640;23.312;2023-10-31T10:19:21;93547.25;;;23.72;30.93
20037;BME280;10179;42.640;23.312;2023-10-31T10:21:58;93560.53;;;23.77;30.58
20037;BME280;10179;42.640;23.312;2023-10-31T10:24:24;93537.34;;;23.73;30.71
20037;BME280;10179;42.640;23.312;2023-10-31T10:27:08;93545.00;;;24.05;30.39
20037;BME280;10179;42.640;23.312;2023-10-31T10:29:35;93462.75;;;23.52;30.27
20037;BME280;10179;42.640;23.312;2023-10-31T10:32:00;93549.75;;;24.09;29.73
20037;BME280;10179;42.640;23.312;2023-10-31T10:34:26;93516.56;;;23.87;29.76
20037;BME280;10179;42.640;23.312;2023-10-31T10:36:51;93515.56;;;23.83;30.09
20037;BME280;10179;42.640;23.312;2023-10-31T10:39:20;93535.19;;;23.92;29.96
20037;BME280;10179;42.640;23.312;2023-10-31T10:41:52;93536.81;;;24.11;30.06
20037;BME280;10179;42.640;23.312;2023-10-31T10:44:32;93511.84;;;24.01;30.68
20037;BME280;10179;42.640;23.312;2023-10-31T10:46:58;93372.72;;;23.12;29.72
20037;BME280;10179;42.640;23.312;2023-10-31T10:49:27;93515.94;;;24.08;29.77
20037;BME280;10179;42.640;23.312;2023-10-31T10:51:54;93506.19;;;24.12;29.68
20037;BME280;10179;42.640;23.312;2023-10-31T10:54:45;93447.91;;;23.95;29.62
20037;BME280;10179;42.640;23.312;2023-10-31T10:57:41;93503.72;;;24.41;29.74
20037;BME280;10179;42.640;23.312;2023-10-31T11:00:08;93473.50;;;24.18;29.60
20037;BME280;10179;42.640;23.312;2023-10-31T11:02:36;93483.16;;;24.28;29.73
20037;BME280;10179;42.640;23.312;2023-10-31T11:05:05;93486.94;;;24.27;29.97
20037;BME280;10179;42.640;23.312;2023-10-31T11:07:35;93485.84;;;24.28;29.74
20037;BME280;10179;42.640;23.312;2023-10-31T11:10:01;93474.16;;;24.24;29.74
20037;BME280;10179;42.640;23.312;2023-10-31T11:12:29;93463.41;;;24.07;29.73
20037;BME280;10179;42.640;23.312;2023-10-31T11:14:57;93460.72;;;24.07;29.84
20037;BME280;10179;42.640;23.312;2023-10-31T11:17:33;93476.50;;;24.17;29.92
20037;BME280;10179;42.640;23.312;2023-10-31T11:20:00;93415.53;;;23.83;29.72
20037;BME280;10179;42.640;23.312;2023-10-31T11:22:25;93427.88;;;23.92;29.43
20037;BME280;10179;42.640;23.312;2023-10-31T11:24:51;93394.69;;;23.71;29.37
20037;BME280;10179;42.640;23.312;2023-10-31T11:27:17;93463.28;;;24.29;29.28
20037;BME280;10179;42.640;23.312;2023-10-31T11:29:43;93365.28;;;23.66;28.61
20037;BME280;10179;42.640;23.312;2023-10-31T11:32:10;93442.75;;;24.16;28.37
20037;BME280;10179;42.640;23.312;2023-10-31T11:34:38;93444.34;;;24.25;27.68
20037;BME280;10179;42.640;23.312;2023-10-31T11:37:25;93430.72;;;24.22;28.01
20037;BME280;10179;42.640;23.312;2023-10-31T11:42:52;93323.03;;;23.63;26.92
20037;BME280;10179;42.640;23.312;2023-10-31T11:47:51;93424.91;;;24.46;26.89
20037;BME280;10179;42.640;23.312;2023-10-31T11:50:16;93426.81;;;24.54;26.41
20037;BME280;10179;42.640;23.312;2023-10-31T11:52:42;93420.97;;;24.61;26.11
20037;BME280;10179;42.640;23.312;2023-10-31T11:55:11;93421.28;;;24.68;25.98
20037;BME280;10179;42.640;23.312;2023-10-31T11:57:38;93335.53;;;24.19;25.84
20037;BME280;10179;42.640;23.312;2023-10-31T12:00:04;93411.94;;;24.74;26.08
20037;BME280;10179;42.640;23.312;2023-10-31T12:02:30;93390.63;;;24.69;25.86
20037;BME280;10179;42.640;23.312;2023-10-31T12:05:11;93407.34;;;24.83;25.83
20037;BME280;10179;42.640;23.312;2023-10-31T12:07:46;93393.31;;;24.69;25.70
20037;BME280;10179;42.640;23.312;2023-10-31T12:10:12;93400.72;;;24.72;25.40
20037;BME280;10179;42.640;23.312;2023-10-31T12:12:38;93402.44;;;24.76;25.34
20037;BME280;10179;42.640;23.312;2023-10-31T12:15:10;93374.78;;;24.76;25.33
20037;BME280;10179;42.640;23.312;2023-10-31T12:17:35;93391.03;;;24.88;24.87
20037;BME280;10179;42.640;23.312;2023-10-31T12:20:08;93392.78;;;24.84;25.05
20037;BME280;10179;42.640;23.312;2023-10-31T12:22:34;93379.38;;;24.67;25.28
20037;BME280;10179;42.640;23.312;2023-10-31T12:25:04;93392.63;;;24.81;25.17
20037;BME280;10179;42.640;23.312;2023-10-31T12:27:46;93388.69;;;24.87;25.10
20037;BME280;10179;42.640;23.312;2023-10-31T12:30:13;93357.75;;;24.72;25.46
20037;BME280;10179;42.640;23.312;2023-10-31T12:32:42;93396.25;;;24.93;25.79
20037;BME280;10179;42.640;23.312;2023-10-31T12:35:16;93375.53;;;24.94;25.49
20037;BME280;10179;42.640;23.312;2023-10-31T12:37:46;93347.91;;;24.85;25.39
20037;BME280;10179;42.640;23.312;2023-10-31T12:40:22;93340.41;;;24.99;25.41
20037;BME280;10179;42.640;23.312;2023-10-31T12:42:48;93343.56;;;25.01;25.19
20037;BME280;10179;42.640;23.312;2023-10-31T12:45:15;93339.00;;;25.02;25.18
20037;BME280;10179;42.640;23.312;2023-10-31T12:47:42;93312.19;;;24.84;25.18
20037;BME280;10179;42.640;23.312;2023-10-31T12:50:11;93329.66;;;24.99;25.14
20037;BME280;10179;42.640;23.312;2023-10-31T12:52:53;93289.13;;;24.83;25.25